| Date | Time | Temp. (oF) | Dew Point (oF) | Rel. Hum. (%) | Press. (in.) | Wind Dir. | Wind Speed (mph) | Hourly Rainfall (in.) |
|
|---|---|---|---|---|---|---|---|---|---|
| 1 | 08/30 | 00:00 | 69 | 67 | 94 | 29.80 | SW | 0 | 0.00 |
| 2 | 08/29 | 23:00 | 70 | 66 | 90 | 29.79 | SSW | 0 | 0.00 |
| 3 | 08/29 | 22:00 | 72 | 67 | 86 | 29.78 | NNW | 0 | 0.00 |
| 4 | 08/29 | 21:00 | 74 | 67 | 80 | 29.75 | NNW | 0 | 0.00 |
| 5 | 08/29 | 20:00 | 77 | 67 | 73 | 29.73 | N | 4 | 0.00 |
| 6 | 08/29 | 19:00 | 80 | 70 | 72 | 29.68 | SW | 2 | 0.00 |
| 7 | 08/29 | 18:00 | 82 | 69 | 66 | 29.65 | SSW | 7 | 0.00 |
| 8 | 08/29 | 17:00 | 83 | 70 | 67 | 29.66 | W | 0 | 0.00 |
| 9 | 08/29 | 16:00 | 82 | 73 | 76 | 29.67 | NNE | 0 | 0.00 |
| 10 | 08/29 | 15:00 | 82 | 73 | 75 | 29.68 | WNW | 2 | 0.00 |
| 11 | 08/29 | 14:00 | 82 | 74 | 78 | 29.69 | W | 1 | 0.00 |
| 12 | 08/29 | 13:00 | 79 | 73 | 83 | 29.72 | S | 0 | 0.00 |
| 13 | 08/29 | 12:00 | 76 | 73 | 91 | 29.75 | S | 0 | 0.00 |
| 14 | 08/29 | 11:00 | 73 | 71 | 96 | 29.76 | SW | 0 | 0.00 |
| 15 | 08/29 | 10:00 | 73 | 72 | 100 | 29.76 | SSW | 0 | 0.00 |
| 16 | 08/29 | 09:00 | 71 | 71 | 100 | 29.76 | ESE | 0 | 0.00 |
| 17 | 08/29 | 08:00 | 70 | 69 | 100 | 29.80 | SE | 0 | 0.00 |
| 18 | 08/29 | 07:00 | 70 | 69 | 100 | 29.81 | NE | 0 | 0.00 |
| 19 | 08/29 | 06:00 | 69 | 68 | 100 | 29.80 | ESE | 0 | 0.00 |
| 20 | 08/29 | 05:00 | 69 | 68 | 100 | 29.81 | ENE | 0 | 0.00 |
| 21 | 08/29 | 04:00 | 69 | 68 | 100 | 29.85 | SE | 0 | 0.00 |
| 22 | 08/29 | 03:00 | 69 | 68 | 100 | 29.86 | ENE | 0 | 0.00 |
| 23 | 08/29 | 02:00 | 69 | 68 | 100 | 29.88 | ESE | 0 | 0.01 |
| 24 | 08/29 | 01:00 | 69 | 68 | 100 | 29.91 | ESE | 0 | 0.00 |